Isabel, Texas
Current Conditions -  °F | °C
As of 11:53 PM on Tuesday 27 Jan 2015 (Local Time) from KPIL Reporting Station
Clear Clear  
Wind Chill: 57°   Ceiling: Unl
Heat Index: 57°   Visibility: 8mi
Dew Point: 54°   Wind: 6mph
Humidity: 89%   Direction: 190°S
Pressure: 30.17"   Gusts: NA
Location:  26.0776°N, 97.3389°W
Report Text: KPIL 280553Z AUTO 19005KT 8SM CLR 14/12 A3017 RMK AO2 SLP217 T01390122 10211 20139 402720094 50002 $
Loading
Personal Weather Stations






























Interactive Weather Map New forecast layout! Learn more

10-Day Weather Forecast

Advertisements
Track Severe Weather on mobile